Time;durP1;ratioP1;P1;durP2;ratioP2;P2;SDS_P1;SDS_P2;PMS_P1;PMS_P2;Temp;Humidity;BMP_temperature;BMP_pressure;BME280_temperature;BME280_humidity;BME280_pressure;Samples;Min_cycle;Max_cycle;Signal;HPM_P1;HPM_P2
2023/05/10 00:01:37;;;;;;;16.73;15.82;;;;;;;;;;4995178;28;20057;-68
2023/05/10 00:04:03;;;;;;;17.63;16.63;;;;;;;;;;4996126;28;20034;-66
2023/05/10 00:06:29;;;;;;;16.42;15.52;;;;;;;;;;4995016;28;20042;-66
2023/05/10 00:08:55;;;;;;;16.73;15.82;;;;;;;;;;4993926;28;20431;-66
2023/05/10 00:11:20;;;;;;;17.55;16.55;;;;;;;;;;4994886;28;20092;-66
2023/05/10 00:13:46;;;;;;;18.52;17.52;;;;;;;;;;4997274;28;20557;-66
2023/05/10 00:16:12;;;;;;;19.65;18.58;;;;;;;;;;4996958;28;20096;-66
2023/05/10 00:18:38;;;;;;;17.83;16.52;;;;;;;;;;4997249;28;20147;-66
2023/05/10 00:21:04;;;;;;;19.00;17.95;;;;;;;;;;4996654;28;20415;-66
2023/05/10 00:23:29;;;;;;;17.55;16.55;;;;;;;;;;4993226;28;20045;-66
2023/05/10 00:25:55;;;;;;;16.60;15.70;;;;;;;;;;4991318;28;20164;-66
2023/05/10 00:28:21;;;;;;;17.85;16.85;;;;;;;;;;4994578;28;20163;-67
2023/05/10 00:30:46;;;;;;;17.38;16.40;;;;;;;;;;4994584;28;20038;-65
2023/05/10 00:33:12;;;;;;;18.48;17.48;;;;;;;;;;4992487;28;20045;-67
2023/05/10 00:35:38;;;;;;;16.05;15.15;;;;;;;;;;4992443;28;20034;-66
2023/05/10 00:38:03;;;;;;;17.08;16.17;;;;;;;;;;4995607;28;20342;-66
2023/05/10 00:40:30;;;;;;;17.67;16.70;;;;;;;;;;4997902;28;20034;-66
2023/05/10 00:42:56;;;;;;;16.55;15.65;;;;;;;;;;4993688;28;20042;-66
2023/05/10 00:45:21;;;;;;;16.65;15.75;;;;;;;;;;4995714;28;20031;-67
2023/05/10 00:47:47;;;;;;;16.73;15.80;;;;;;;;;;4993667;28;20506;-66
2023/05/10 00:50:13;;;;;;;16.38;15.48;;;;;;;;;;5000360;28;20038;-66
2023/05/10 00:52:38;;;;;;;16.80;15.90;;;;;;;;;;4997863;28;20040;-66
2023/05/10 00:55:05;;;;;;;16.25;15.35;;;;;;;;;;4999102;28;20038;-65
2023/05/10 00:57:31;;;;;;;17.38;16.40;;;;;;;;;;4999309;28;20053;-67
2023/05/10 00:59:58;;;;;;;14.18;13.38;;;;;;;;;;4997225;28;20038;-65
2023/05/10 01:02:24;;;;;;;14.23;13.43;;;;;;;;;;4991597;28;20529;-66
2023/05/10 01:04:49;;;;;;;13.75;12.95;;;;;;;;;;5001593;28;20041;-66
2023/05/10 01:07:15;;;;;;;15.20;14.05;;;;;;;;;;5000310;28;20057;-66
2023/05/10 01:09:40;;;;;;;14.35;13.55;;;;;;;;;;4997636;28;20100;-66
2023/05/10 01:12:07;;;;;;;14.45;13.65;;;;;;;;;;4999007;28;20037;-66
2023/05/10 01:14:33;;;;;;;14.80;14.00;;;;;;;;;;4998054;28;20141;-66
2023/05/10 01:17:00;;;;;;;14.48;13.68;;;;;;;;;;4998695;28;20084;-66
2023/05/10 01:19:27;;;;;;;15.20;14.35;;;;;;;;;;4985908;28;20042;-66
2023/05/10 01:22:11;;;;;;;13.77;12.98;;;;;;;;;;4997565;28;20026;-67
2023/05/10 01:25:01;;;;;;;14.27;13.48;;;;;;;;;;4998553;28;20362;-67
2023/05/10 01:27:47;;;;;;;16.05;15.15;;;;;;;;;;4997502;28;20556;-68
2023/05/10 01:30:45;;;;;;;13.98;13.18;;;;;;;;;;4999664;28;20041;-68
2023/05/10 01:33:33;;;;;;;13.48;12.68;;;;;;;;;;4995390;28;20658;-68
2023/05/10 01:36:08;;;;;;;14.70;13.90;;;;;;;;;;4997787;28;20168;-68
2023/05/10 01:38:47;;;;;;;15.52;14.65;;;;;;;;;;4982908;28;20045;-68
2023/05/10 01:41:35;;;;;;;16.75;15.85;;;;;;;;;;4998334;28;20044;-68
2023/05/10 01:44:05;;;;;;;15.63;14.73;;;;;;;;;;4997880;28;20092;-68
2023/05/10 01:46:37;;;;;;;16.08;15.18;;;;;;;;;;4998293;28;20038;-70
2023/05/10 01:49:07;;;;;;;15.85;14.95;;;;;;;;;;4993495;28;20042;-68
2023/05/10 01:51:41;;;;;;;16.55;15.65;;;;;;;;;;4999025;28;20045;-67
2023/05/10 01:54:09;;;;;;;15.82;14.93;;;;;;;;;;4996985;28;20527;-68
2023/05/10 01:56:36;;;;;;;15.85;14.95;;;;;;;;;;4980551;28;20069;-70
2023/05/10 01:59:08;;;;;;;16.00;15.10;;;;;;;;;;4994734;28;20038;-69
2023/05/10 02:01:36;;;;;;;15.70;14.80;;;;;;;;;;4998289;28;20033;-69
2023/05/10 02:04:02;;;;;;;16.52;15.63;;;;;;;;;;4996908;28;20052;-69
2023/05/10 02:06:28;;;;;;;15.18;14.30;;;;;;;;;;4998457;28;20042;-69
2023/05/10 02:08:53;;;;;;;15.95;15.05;;;;;;;;;;4994009;28;20432;-69
2023/05/10 02:11:20;;;;;;;15.35;14.45;;;;;;;;;;4996662;28;20491;-69
2023/05/10 02:13:48;;;;;;;16.15;15.25;;;;;;;;;;4994663;28;20088;-70
2023/05/10 02:16:14;;;;;;;15.65;14.75;;;;;;;;;;4995943;28;20038;-69
2023/05/10 02:18:41;;;;;;;16.15;15.25;;;;;;;;;;4984315;28;20030;-70
2023/05/10 02:21:08;;;;;;;14.80;14.00;;;;;;;;;;4977932;28;20133;-70
2023/05/10 02:23:34;;;;;;;15.50;14.60;;;;;;;;;;4997042;28;20345;-68
2023/05/10 02:26:02;;;;;;;15.48;14.57;;;;;;;;;;4995585;28;20553;-70
2023/05/10 02:28:29;;;;;;;16.30;15.40;;;;;;;;;;4985312;28;20069;-70
2023/05/10 02:30:55;;;;;;;15.55;14.65;;;;;;;;;;4997709;28;20049;-70
2023/05/10 02:33:22;;;;;;;15.68;14.77;;;;;;;;;;4977956;28;20049;-69
2023/05/10 02:35:50;;;;;;;14.85;14.02;;;;;;;;;;4993543;28;20035;-69
2023/05/10 02:38:16;;;;;;;14.85;14.05;;;;;;;;;;4985029;28;20037;-69
2023/05/10 02:40:42;;;;;;;14.52;13.73;;;;;;;;;;4997289;28;20037;-70
2023/05/10 02:43:13;;;;;;;15.45;14.55;;;;;;;;;;4997585;28;20101;-69
2023/05/10 02:45:39;;;;;;;14.30;13.50;;;;;;;;;;4995156;28;20106;-69
2023/05/10 02:48:05;;;;;;;13.95;13.15;;;;;;;;;;4997322;28;20045;-70
2023/05/10 02:50:33;;;;;;;15.23;14.32;;;;;;;;;;4984335;28;20038;-69
2023/05/10 02:53:09;;;;;;;14.15;13.35;;;;;;;;;;4994644;28;20060;-69
2023/05/10 02:55:40;;;;;;;13.43;12.63;;;;;;;;;;4998323;28;20042;-69
2023/05/10 02:58:05;;;;;;;;;;;;;;;;;;4995553;28;20037;-69
2023/05/10 03:00:31;;;;;;;11.40;10.70;;;;;;;;;;4997291;28;19980;-70
2023/05/10 03:02:56;;;;;;;13.23;12.45;;;;;;;;;;4997288;28;20103;-69
2023/05/10 03:05:22;;;;;;;14.10;13.30;;;;;;;;;;4993015;28;20121;-69
2023/05/10 03:07:48;;;;;;;14.60;13.80;;;;;;;;;;4980226;28;20048;-69
2023/05/10 03:10:13;;;;;;;14.82;14.02;;;;;;;;;;4984590;28;20061;-70
2023/05/10 03:13:10;;;;;;;14.80;13.93;;;;;;;;;;4996682;28;20042;-70
2023/05/10 03:15:44;;;;;;;15.18;14.30;;;;;;;;;;4998243;28;20124;-70
2023/05/10 03:18:28;;;;;;;15.93;15.02;;;;;;;;;;4998815;28;20430;-69
2023/05/10 03:20:59;;;;;;;14.70;13.85;;;;;;;;;;4995412;28;20045;-69
2023/05/10 03:23:33;;;;;;;15.63;14.73;;;;;;;;;;4995251;28;20384;-69
2023/05/10 03:25:59;;;;;;;15.48;14.60;;;;;;;;;;4995565;28;20097;-69
2023/05/10 03:28:27;;;;;;;15.00;14.15;;;;;;;;;;4995139;28;20026;-70
2023/05/10 03:30:53;;;;;;;14.57;13.77;;;;;;;;;;4993301;28;20034;-70
2023/05/10 03:33:18;;;;;;;14.07;13.27;;;;;;;;;;4995243;28;20447;-70
2023/05/10 03:35:45;;;;;;;13.57;12.77;;;;;;;;;;4999762;28;20034;-69
2023/05/10 03:38:13;;;;;;;14.98;14.15;;;;;;;;;;4992273;28;20247;-70
2023/05/10 03:40:39;;;;;;;14.45;13.65;;;;;;;;;;4995772;28;20057;-70
2023/05/10 03:43:04;;;;;;;14.98;14.13;;;;;;;;;;4995004;28;20360;-70
2023/05/10 03:45:30;;;;;;;15.73;14.82;;;;;;;;;;4997470;28;20096;-69
2023/05/10 03:47:57;;;;;;;15.70;14.80;;;;;;;;;;4995891;28;20127;-69
2023/05/10 03:50:22;;;;;;;14.13;13.32;;;;;;;;;;4997402;28;20053;-70
2023/05/10 03:52:48;;;;;;;15.00;14.18;;;;;;;;;;4996537;28;20455;-70
2023/05/10 03:55:13;;;;;;;15.80;14.90;;;;;;;;;;4996678;28;20034;-70
2023/05/10 03:57:38;;;;;;;16.27;15.38;;;;;;;;;;4995693;28;20152;-69
2023/05/10 04:00:04;;;;;;;16.77;15.77;;;;;;;;;;4998884;28;20144;-69
2023/05/10 04:02:30;;;;;;;14.48;13.68;;;;;;;;;;4982505;28;20042;-69
2023/05/10 04:04:55;;;;;;;14.90;14.07;;;;;;;;;;4995156;28;20132;-69
2023/05/10 04:07:21;;;;;;;15.10;14.25;;;;;;;;;;4996475;28;20042;-69
2023/05/10 04:09:46;;;;;;;15.50;14.60;;;;;;;;;;4995628;28;20446;-69
2023/05/10 04:12:12;;;;;;;14.40;13.60;;;;;;;;;;4999701;28;20030;-69
2023/05/10 04:14:37;;;;;;;16.73;15.73;;;;;;;;;;4982621;28;20100;-69
2023/05/10 04:17:03;;;;;;;15.35;14.48;;;;;;;;;;4997851;28;20030;-69
2023/05/10 04:19:31;;;;;;;15.05;14.15;;;;;;;;;;4990875;28;20041;-69
2023/05/10 04:21:57;;;;;;;15.82;14.93;;;;;;;;;;4993583;28;20038;-68
2023/05/10 04:24:23;;;;;;;15.23;14.35;;;;;;;;;;4977126;28;20049;-69
2023/05/10 04:26:48;;;;;;;15.23;14.32;;;;;;;;;;5001423;28;20038;-69
2023/05/10 04:29:14;;;;;;;14.55;13.75;;;;;;;;;;4998593;28;20097;-69
2023/05/10 04:31:39;;;;;;;15.52;14.63;;;;;;;;;;4995115;28;20683;-69
2023/05/10 04:34:05;;;;;;;15.60;14.70;;;;;;;;;;4998818;28;20041;-69
2023/05/10 04:36:32;;;;;;;17.15;15.80;;;;;;;;;;4998350;28;20083;-69
2023/05/10 04:38:57;;;;;;;14.35;13.55;;;;;;;;;;4999227;28;20041;-69
2023/05/10 04:41:23;;;;;;;14.05;13.25;;;;;;;;;;4968471;28;20460;-69
2023/05/10 04:43:49;;;;;;;13.88;13.07;;;;;;;;;;5001979;28;20055;-69
2023/05/10 04:46:14;;;;;;;15.07;14.25;;;;;;;;;;4999327;28;20033;-69
2023/05/10 04:48:40;;;;;;;15.02;14.18;;;;;;;;;;5000985;28;20034;-69
2023/05/10 04:51:06;;;;;;;15.73;14.82;;;;;;;;;;4999825;28;20118;-69
2023/05/10 04:53:32;;;;;;;15.32;14.45;;;;;;;;;;5000032;28;20602;-69
2023/05/10 04:55:57;;;;;;;14.90;14.10;;;;;;;;;;4996655;28;20042;-68
2023/05/10 04:58:22;;;;;;;14.15;13.35;;;;;;;;;;4998842;28;20042;-69
2023/05/10 05:00:48;;;;;;;14.13;13.32;;;;;;;;;;4998429;28;20041;-68
2023/05/10 05:03:13;;;;;;;13.88;13.07;;;;;;;;;;4998204;28;20041;-68
2023/05/10 05:05:39;;;;;;;13.85;13.05;;;;;;;;;;4997627;28;20040;-68
2023/05/10 05:08:04;;;;;;;13.85;12.95;;;;;;;;;;4995662;28;20053;-67
2023/05/10 05:10:30;;;;;;;13.55;12.75;;;;;;;;;;5000541;28;20030;-67
2023/05/10 05:12:55;;;;;;;13.32;12.52;;;;;;;;;;4998294;28;20038;-67
2023/05/10 05:15:20;;;;;;;14.15;13.35;;;;;;;;;;4999239;28;20620;-67
2023/05/10 05:17:46;;;;;;;15.25;14.35;;;;;;;;;;4999375;28;20115;-67
2023/05/10 05:20:12;;;;;;;14.13;13.32;;;;;;;;;;5000561;28;20042;-67
2023/05/10 05:22:38;;;;;;;13.60;12.80;;;;;;;;;;4999928;28;20045;-68
2023/05/10 05:25:04;;;;;;;13.90;13.10;;;;;;;;;;4995091;28;20490;-68
2023/05/10 05:27:30;;;;;;;13.98;13.18;;;;;;;;;;5000046;28;20030;-68
2023/05/10 05:29:56;;;;;;;14.30;13.50;;;;;;;;;;4998868;28;20038;-68
2023/05/10 05:32:22;;;;;;;13.90;13.10;;;;;;;;;;4995881;28;20030;-67
2023/05/10 05:34:48;;;;;;;14.07;13.27;;;;;;;;;;4996056;28;20030;-67
2023/05/10 05:37:21;;;;;;;15.57;14.68;;;;;;;;;;4996880;28;20030;-68
2023/05/10 05:39:46;;;;;;;15.68;14.77;;;;;;;;;;4996681;28;20176;-68
2023/05/10 05:42:13;;;;;;;13.88;13.07;;;;;;;;;;4993792;28;20036;-67
2023/05/10 05:44:38;;;;;;;14.20;13.40;;;;;;;;;;5000915;28;20657;-67
2023/05/10 05:47:04;;;;;;;16.02;15.13;;;;;;;;;;4998308;28;20049;-68
2023/05/10 05:49:29;;;;;;;15.75;14.85;;;;;;;;;;4999391;28;20052;-67
2023/05/10 05:51:58;;;;;;;14.27;13.48;;;;;;;;;;5000799;28;20555;-68
2023/05/10 05:54:24;;;;;;;14.35;13.55;;;;;;;;;;4995188;28;20097;-68
2023/05/10 05:56:49;;;;;;;14.60;13.80;;;;;;;;;;4997443;28;20512;-69
2023/05/10 05:59:14;;;;;;;15.40;14.50;;;;;;;;;;4978711;28;20441;-68
2023/05/10 06:01:40;;;;;;;15.23;14.32;;;;;;;;;;4994115;28;20664;-67
2023/05/10 06:04:06;;;;;;;15.70;14.80;;;;;;;;;;5000472;28;20041;-67
2023/05/10 06:06:32;;;;;;;15.77;14.88;;;;;;;;;;4994981;28;20416;-67
2023/05/10 06:08:57;;;;;;;19.27;17.42;;;;;;;;;;4998413;28;20042;-67
2023/05/10 06:11:23;;;;;;;18.95;17.95;;;;;;;;;;5001345;28;20409;-67
2023/05/10 06:13:48;;;;;;;19.73;18.63;;;;;;;;;;5001661;28;20033;-67
2023/05/10 06:16:13;;;;;;;21.30;20.10;;;;;;;;;;4998821;28;20061;-67
2023/05/10 06:18:39;;;;;;;20.95;19.85;;;;;;;;;;4993179;28;20136;-67
2023/05/10 06:21:04;;;;;;;21.88;20.67;;;;;;;;;;5000060;28;20044;-67
2023/05/10 06:23:30;;;;;;;21.45;20.27;;;;;;;;;;4969241;28;20038;-68
2023/05/10 06:25:55;;;;;;;22.20;21.00;;;;;;;;;;4996708;28;20045;-67
2023/05/10 06:28:20;;;;;;;22.88;21.67;;;;;;;;;;4996882;28;20113;-68
2023/05/10 06:30:46;;;;;;;22.10;20.90;;;;;;;;;;5000199;28;20034;-68
2023/05/10 06:33:11;;;;;;;22.33;21.13;;;;;;;;;;4998342;28;20096;-67
2023/05/10 06:35:37;;;;;;;23.23;21.92;;;;;;;;;;4999454;28;20057;-68
2023/05/10 06:38:02;;;;;;;21.58;20.42;;;;;;;;;;4982169;28;20034;-67
2023/05/10 06:40:27;;;;;;;19.65;18.55;;;;;;;;;;4999261;28;20124;-68
2023/05/10 06:42:53;;;;;;;20.02;18.92;;;;;;;;;;4995375;28;20037;-67
2023/05/10 06:45:18;;;;;;;21.02;19.92;;;;;;;;;;4998446;28;20045;-66
2023/05/10 06:47:43;;;;;;;21.20;20.05;;;;;;;;;;4995693;28;20030;-66
2023/05/10 06:50:11;;;;;;;20.70;19.60;;;;;;;;;;4993132;28;20042;-67
2023/05/10 06:52:37;;;;;;;22.70;21.48;;;;;;;;;;4999581;28;20612;-67
2023/05/10 06:55:03;;;;;;;22.10;20.90;;;;;;;;;;4998433;28;20139;-66
2023/05/10 06:57:29;;;;;;;25.38;23.98;;;;;;;;;;4986479;28;20041;-67
2023/05/10 06:59:55;;;;;;;24.42;23.13;;;;;;;;;;4998018;28;20033;-67
2023/05/10 07:02:21;;;;;;;22.25;21.05;;;;;;;;;;4982628;28;20048;-67
2023/05/10 07:04:47;;;;;;;24.48;23.17;;;;;;;;;;5000061;28;20034;-67
2023/05/10 07:07:13;;;;;;;27.48;26.02;;;;;;;;;;4996466;28;20046;-67
2023/05/10 07:09:39;;;;;;;27.00;25.55;;;;;;;;;;4986123;28;20037;-67
2023/05/10 07:12:04;;;;;;;27.95;26.50;;;;;;;;;;4996292;28;20037;-67
2023/05/10 07:14:30;;;;;;;28.13;26.65;;;;;;;;;;4997683;28;20033;-67
2023/05/10 07:16:55;;;;;;;31.58;29.45;;;;;;;;;;4995949;28;20042;-67
2023/05/10 07:19:20;;;;;;;29.15;27.65;;;;;;;;;;4997374;28;20040;-67
2023/05/10 07:21:46;;;;;;;26.90;25.50;;;;;;;;;;4994811;28;20388;-67
2023/05/10 07:24:11;;;;;;;29.40;27.90;;;;;;;;;;4995377;28;20041;-67
2023/05/10 07:26:36;;;;;;;29.40;27.80;;;;;;;;;;4997617;28;20042;-67
2023/05/10 07:29:02;;;;;;;33.40;31.70;;;;;;;;;;4984711;28;20042;-67
2023/05/10 07:31:27;;;;;;;35.33;33.47;;;;;;;;;;4997687;28;20064;-67
2023/05/10 07:33:53;;;;;;;37.10;33.50;;;;;;;;;;4994202;28;20030;-67
2023/05/10 07:36:18;;;;;;;31.60;29.98;;;;;;;;;;4978443;28;20116;-67
2023/05/10 07:38:43;;;;;;;29.90;28.33;;;;;;;;;;4995577;28;20136;-66
2023/05/10 07:41:09;;;;;;;28.13;26.63;;;;;;;;;;4995097;28;20053;-67
2023/05/10 07:43:34;;;;;;;21.80;20.60;;;;;;;;;;4995903;28;20030;-67
2023/05/10 07:46:00;;;;;;;18.33;17.33;;;;;;;;;;4997738;28;20120;-68
2023/05/10 07:48:26;;;;;;;17.42;16.33;;;;;;;;;;4997902;28;20054;-68
2023/05/10 07:50:51;;;;;;;14.45;13.65;;;;;;;;;;4998362;28;20025;-69
2023/05/10 07:53:18;;;;;;;14.13;13.32;;;;;;;;;;4993968;28;20833;-69
2023/05/10 07:55:43;;;;;;;18.85;17.83;;;;;;;;;;4984741;28;20084;-69
2023/05/10 07:58:09;;;;;;;13.40;12.60;;;;;;;;;;4997941;28;20042;-69
2023/05/10 08:00:34;;;;;;;12.63;11.80;;;;;;;;;;4998690;28;20052;-69
2023/05/10 08:03:00;;;;;;;13.30;12.40;;;;;;;;;;4986184;28;20105;-69
2023/05/10 08:05:25;;;;;;;12.98;11.98;;;;;;;;;;4997239;28;20080;-69
2023/05/10 08:07:51;;;;;;;14.18;13.27;;;;;;;;;;4997571;28;20065;-69
2023/05/10 08:10:16;;;;;;;13.23;12.45;;;;;;;;;;4999308;28;20125;-67
2023/05/10 08:12:42;;;;;;;13.77;12.98;;;;;;;;;;4996527;28;20034;-67
2023/05/10 08:15:08;;;;;;;14.00;13.20;;;;;;;;;;4996883;28;20121;-66
2023/05/10 08:17:33;;;;;;;15.18;14.27;;;;;;;;;;4991655;28;20022;-68
2023/05/10 08:19:59;;;;;;;13.35;12.55;;;;;;;;;;4990218;28;20040;-68
2023/05/10 08:22:24;;;;;;;15.30;14.40;;;;;;;;;;4996666;28;20037;-70
2023/05/10 08:24:49;;;;;;;14.18;13.38;;;;;;;;;;4982794;28;20030;-68
2023/05/10 08:27:15;;;;;;;15.63;14.73;;;;;;;;;;4993601;28;20041;-68
2023/05/10 08:29:40;;;;;;;16.00;14.88;;;;;;;;;;4976881;28;20076;-68
2023/05/10 08:32:05;;;;;;;14.88;13.98;;;;;;;;;;4995077;28;20034;-68
2023/05/10 08:34:31;;;;;;;14.77;13.98;;;;;;;;;;4994688;28;20511;-69
2023/05/10 08:36:56;;;;;;;14.63;13.80;;;;;;;;;;4996977;28;20121;-69
2023/05/10 08:39:23;;;;;;;14.85;13.98;;;;;;;;;;4990934;28;20070;-68
2023/05/10 08:41:51;;;;;;;14.23;13.43;;;;;;;;;;4996748;28;20047;-68
2023/05/10 08:44:18;;;;;;;13.13;12.38;;;;;;;;;;4997618;28;20034;-68
2023/05/10 08:46:46;;;;;;;13.70;12.90;;;;;;;;;;4986815;28;20088;-68
2023/05/10 08:49:20;;;;;;;13.93;13.13;;;;;;;;;;4990954;28;20538;-68
2023/05/10 08:51:51;;;;;;;12.38;11.68;;;;;;;;;;4996017;28;20041;-68
2023/05/10 08:54:17;;;;;;;13.32;12.52;;;;;;;;;;4991611;28;20076;-68
2023/05/10 08:56:42;;;;;;;15.50;14.40;;;;;;;;;;4995152;28;20062;-69
2023/05/10 08:59:08;;;;;;;17.52;16.52;;;;;;;;;;4994729;28;20064;-69
2023/05/10 09:01:36;;;;;;;14.88;14.07;;;;;;;;;;4995181;28;20372;-69
2023/05/10 09:04:02;;;;;;;12.85;12.05;;;;;;;;;;4983752;28;20069;-68
2023/05/10 09:06:28;;;;;;;14.80;13.73;;;;;;;;;;4995196;28;20034;-67
2023/05/10 09:08:54;;;;;;;13.00;12.20;;;;;;;;;;4995957;28;20117;-67
2023/05/10 09:11:20;;;;;;;14.75;13.90;;;;;;;;;;4980495;28;20508;-67
2023/05/10 09:13:47;;;;;;;13.65;12.85;;;;;;;;;;5002846;28;20034;-67
2023/05/10 09:16:13;;;;;;;14.80;13.90;;;;;;;;;;4999252;28;20192;-67
2023/05/10 09:18:38;;;;;;;15.07;13.93;;;;;;;;;;4983319;28;20121;-66
2023/05/10 09:21:03;;;;;;;20.75;19.58;;;;;;;;;;5001602;28;20029;-67
2023/05/10 09:23:32;;;;;;;18.48;17.38;;;;;;;;;;4986240;28;20022;-68
2023/05/10 09:26:07;;;;;;;22.05;20.85;;;;;;;;;;4999193;28;20037;-68
2023/05/10 09:28:51;;;;;;;22.05;20.85;;;;;;;;;;5000041;28;20117;-67
2023/05/10 09:31:16;;;;;;;26.50;25.10;;;;;;;;;;5000067;28;20049;-68
2023/05/10 09:33:48;;;;;;;27.00;25.60;;;;;;;;;;4999115;28;20376;-69
2023/05/10 09:36:14;;;;;;;24.48;23.17;;;;;;;;;;4993777;28;20069;-69
2023/05/10 09:38:51;;;;;;;20.80;19.70;;;;;;;;;;4997424;28;20045;-69
2023/05/10 09:41:23;;;;;;;16.88;15.98;;;;;;;;;;4994526;28;20030;-68
2023/05/10 09:43:49;;;;;;;12.32;11.63;;;;;;;;;;5000000;28;20030;-69
2023/05/10 09:46:16;;;;;;;12.82;12.13;;;;;;;;;;5005465;28;20034;-67
2023/05/10 09:48:43;;;;;;;13.55;12.75;;;;;;;;;;4998497;28;20034;-69
2023/05/10 09:51:10;;;;;;;15.88;14.98;;;;;;;;;;4998185;28;20065;-66
2023/05/10 09:53:35;;;;;;;23.45;22.20;;;;;;;;;;4995263;28;20050;-63
2023/05/10 09:56:02;;;;;;;24.67;23.38;;;;;;;;;;4998554;28;20050;-62
2023/05/10 09:58:27;;;;;;;29.00;27.40;;;;;;;;;;4982976;28;20038;-62
2023/05/10 10:00:53;;;;;;;32.30;30.63;;;;;;;;;;4999032;28;20037;-61
2023/05/10 10:03:22;;;;;;;33.20;31.48;;;;;;;;;;4999861;28;20085;-63
2023/05/10 10:05:48;;;;;;;32.00;30.33;;;;;;;;;;4999993;28;20136;-64
2023/05/10 10:08:15;;;;;;;33.08;31.38;;;;;;;;;;4996831;28;20041;-64
2023/05/10 10:10:41;;;;;;;30.45;28.85;;;;;;;;;;4998652;28;20668;-64
2023/05/10 10:13:06;;;;;;;33.22;31.52;;;;;;;;;;4995596;28;20141;-66
2023/05/10 10:15:33;;;;;;;30.13;28.55;;;;;;;;;;5000105;28;20042;-66
2023/05/10 10:17:59;;;;;;;29.48;27.95;;;;;;;;;;4998144;28;20176;-66
2023/05/10 10:20:26;;;;;;;25.63;24.27;;;;;;;;;;4998354;28;20422;-65
2023/05/10 10:22:51;;;;;;;26.10;24.70;;;;;;;;;;4998727;28;20018;-66
2023/05/10 10:25:18;;;;;;;26.05;24.45;;;;;;;;;;4997075;28;20040;-66
2023/05/10 10:27:53;;;;;;;25.08;23.75;;;;;;;;;;4997288;28;20058;-66
2023/05/10 10:30:39;;;;;;;23.52;22.27;;;;;;;;;;4995578;28;20037;-66
2023/05/10 10:33:38;;;;;;;26.83;25.40;;;;;;;;;;4996531;28;20045;-67
2023/05/10 10:36:04;;;;;;;24.73;23.42;;;;;;;;;;4999269;28;20076;-66
2023/05/10 10:38:37;;;;;;;14.43;13.63;;;;;;;;;;4994132;28;20363;-67
2023/05/10 10:41:09;;;;;;;13.85;12.85;;;;;;;;;;5000167;28;20038;-66
2023/05/10 10:43:35;;;;;;;13.68;12.88;;;;;;;;;;4993375;28;20034;-66
2023/05/10 10:46:17;;;;;;;14.32;13.52;;;;;;;;;;4986217;28;20042;-66
2023/05/10 10:49:07;;;;;;;13.32;12.52;;;;;;;;;;4995666;28;20555;-66
2023/05/10 10:51:37;;;;;;;12.50;11.80;;;;;;;;;;4998182;28;20041;-66
2023/05/10 10:54:10;;;;;;;14.15;13.35;;;;;;;;;;4997187;28;20528;-67
2023/05/10 10:56:35;;;;;;;14.13;13.32;;;;;;;;;;4998949;28;20427;-66
2023/05/10 10:59:01;;;;;;;13.40;12.60;;;;;;;;;;4997454;28;20049;-66
2023/05/10 11:01:32;;;;;;;16.88;15.88;;;;;;;;;;4995385;28;20030;-66
2023/05/10 11:03:58;;;;;;;26.00;24.63;;;;;;;;;;4997215;28;20804;-67
2023/05/10 11:06:33;;;;;;;29.75;28.20;;;;;;;;;;4996574;28;20037;-67
2023/05/10 11:09:05;;;;;;;38.50;36.45;;;;;;;;;;4996954;28;20042;-66
2023/05/10 11:11:31;;;;;;;27.40;25.98;;;;;;;;;;4993719;28;20061;-65
2023/05/10 11:14:03;;;;;;;18.23;17.23;;;;;;;;;;4983255;28;20113;-64
2023/05/10 11:16:41;;;;;;;14.27;13.48;;;;;;;;;;4994340;28;20044;-65
2023/05/10 11:19:15;;;;;;;21.15;20.00;;;;;;;;;;4993571;28;20030;-65
2023/05/10 11:21:51;;;;;;;18.08;17.08;;;;;;;;;;4999010;28;20026;-64
2023/05/10 11:24:20;;;;;;;19.88;18.77;;;;;;;;;;4994675;28;20472;-63
2023/05/10 11:26:46;;;;;;;22.42;21.23;;;;;;;;;;4996579;28;20056;-65
2023/05/10 11:29:13;;;;;;;26.02;24.63;;;;;;;;;;5000111;28;20038;-64
2023/05/10 11:31:46;;;;;;;33.20;31.48;;;;;;;;;;4998475;28;20085;-65
2023/05/10 11:34:22;;;;;;;25.85;24.45;;;;;;;;;;4993473;28;20417;-68
2023/05/10 11:36:53;;;;;;;30.63;29.05;;;;;;;;;;4997107;28;20120;-68
2023/05/10 11:39:19;;;;;;;22.30;21.05;;;;;;;;;;4995053;28;20037;-68
2023/05/10 11:41:48;;;;;;;22.75;21.55;;;;;;;;;;4991840;28;20420;-66
2023/05/10 11:44:13;;;;;;;12.35;11.65;;;;;;;;;;4995934;28;20104;-65
2023/05/10 11:46:39;;;;;;;12.13;11.43;;;;;;;;;;4997886;28;20038;-65
2023/05/10 11:49:07;;;;;;;12.48;11.77;;;;;;;;;;4991586;28;20088;-65
2023/05/10 11:51:35;;;;;;;14.68;13.88;;;;;;;;;;4993743;28;20057;-67
2023/05/10 11:54:02;;;;;;;15.13;14.23;;;;;;;;;;4995897;28;20088;-68
2023/05/10 11:56:27;;;;;;;16.65;15.75;;;;;;;;;;4976862;28;20121;-65
2023/05/10 11:58:57;;;;;;;16.02;15.13;;;;;;;;;;4994494;28;20125;-67
2023/05/10 12:01:26;;;;;;;18.13;17.13;;;;;;;;;;4995810;28;21325;-67
2023/05/10 12:03:54;;;;;;;18.98;17.98;;;;;;;;;;4994933;28;20101;-67
2023/05/10 12:06:20;;;;;;;20.83;19.73;;;;;;;;;;4997826;28;20529;-66
2023/05/10 12:08:47;;;;;;;22.38;21.17;;;;;;;;;;4996674;28;20034;-67
2023/05/10 12:11:15;;;;;;;18.90;17.90;;;;;;;;;;4983005;28;20030;-66
2023/05/10 12:13:42;;;;;;;19.60;18.50;;;;;;;;;;4995182;28;20129;-68
2023/05/10 12:16:37;;;;;;;21.27;20.10;;;;;;;;;;4996153;28;20029;-67
2023/05/10 12:19:02;;;;;;;19.42;18.35;;;;;;;;;;4981912;28;20587;-67
2023/05/10 12:21:30;;;;;;;16.10;15.20;;;;;;;;;;4991675;28;20036;-67
2023/05/10 12:24:01;;;;;;;13.40;12.60;;;;;;;;;;4990655;28;20141;-66
2023/05/10 12:26:27;;;;;;;;;;;;;;;;;;4993302;28;20030;-66
2023/05/10 12:29:15;;;;;;;14.13;13.32;;;;;;;;;;4997270;28;19917;-66
2023/05/10 12:31:59;;;;;;;14.50;13.70;;;;;;;;;;4994848;28;20030;-65
2023/05/10 12:34:25;;;;;;;14.07;13.25;;;;;;;;;;4994955;28;20650;-66
2023/05/10 12:36:52;;;;;;;14.40;13.60;;;;;;;;;;4992099;28;20083;-66
2023/05/10 12:39:18;;;;;;;12.05;11.35;;;;;;;;;;4990792;28;20750;-66
2023/05/10 12:41:43;;;;;;;11.50;10.80;;;;;;;;;;4990673;28;20038;-66
2023/05/10 12:44:08;;;;;;;12.30;11.60;;;;;;;;;;4995731;28;20038;-66
2023/05/10 12:46:34;;;;;;;13.60;12.80;;;;;;;;;;4997912;28;20030;-66
2023/05/10 12:48:59;;;;;;;11.32;10.63;;;;;;;;;;4996238;28;20172;-64
2023/05/10 12:51:24;;;;;;;13.10;12.30;;;;;;;;;;4995920;28;20396;-66
2023/05/10 12:53:50;;;;;;;11.30;10.60;;;;;;;;;;5001103;28;20025;-66
2023/05/10 12:56:15;;;;;;;13.05;12.25;;;;;;;;;;4982673;28;20041;-66
2023/05/10 12:58:41;;;;;;;13.25;12.45;;;;;;;;;;4997475;28;20113;-65
2023/05/10 13:01:06;;;;;;;13.95;13.15;;;;;;;;;;4995749;28;20070;-66
2023/05/10 13:03:32;;;;;;;13.02;12.25;;;;;;;;;;4998610;28;20034;-67
2023/05/10 13:05:57;;;;;;;11.93;11.23;;;;;;;;;;5004978;28;20043;-67
2023/05/10 13:08:23;;;;;;;13.73;12.93;;;;;;;;;;4998606;28;20029;-67
2023/05/10 13:10:48;;;;;;;14.70;13.90;;;;;;;;;;4998649;28;20074;-68
2023/05/10 13:13:14;;;;;;;15.57;14.68;;;;;;;;;;4997012;28;20108;-68
2023/05/10 13:15:39;;;;;;;12.45;11.68;;;;;;;;;;4997880;28;20464;-67
2023/05/10 13:18:05;;;;;;;16.85;15.95;;;;;;;;;;4997076;28;20101;-67
2023/05/10 13:20:30;;;;;;;19.42;18.33;;;;;;;;;;4999513;28;20656;-67
2023/05/10 13:22:55;;;;;;;14.48;13.57;;;;;;;;;;5000458;28;20042;-67
2023/05/10 13:25:21;;;;;;;15.88;14.98;;;;;;;;;;4995879;28;20048;-67
2023/05/10 13:27:46;;;;;;;20.58;19.48;;;;;;;;;;4995494;28;20045;-68
2023/05/10 13:30:11;;;;;;;30.20;28.63;;;;;;;;;;5002025;28;20057;-67
2023/05/10 13:32:37;;;;;;;26.35;24.92;;;;;;;;;;4971605;28;20043;-67
2023/05/10 13:35:04;;;;;;;31.45;29.80;;;;;;;;;;4998394;28;20042;-67
2023/05/10 13:37:31;;;;;;;17.52;16.52;;;;;;;;;;4995188;28;20100;-67
2023/05/10 13:39:56;;;;;;;18.42;17.42;;;;;;;;;;4998371;28;20033;-67
2023/05/10 13:42:23;;;;;;;14.45;13.65;;;;;;;;;;4998157;28;20032;-68
2023/05/10 13:44:49;;;;;;;13.82;13.02;;;;;;;;;;4998345;28;20061;-67
2023/05/10 13:47:14;;;;;;;12.75;12.02;;;;;;;;;;4995909;28;20515;-67
2023/05/10 13:49:39;;;;;;;13.18;12.38;;;;;;;;;;4983441;28;20544;-68
2023/05/10 13:52:09;;;;;;;11.55;10.85;;;;;;;;;;4998343;28;20038;-68
2023/05/10 13:54:38;;;;;;;12.00;11.30;;;;;;;;;;4996099;28;20037;-67
2023/05/10 13:57:04;;;;;;;12.10;11.40;;;;;;;;;;4982106;28;20042;-67
2023/05/10 13:59:31;;;;;;;11.55;10.75;;;;;;;;;;4996880;28;20463;-67
2023/05/10 14:01:57;;;;;;;11.52;10.82;;;;;;;;;;4994790;28;20108;-67
2023/05/10 14:04:22;;;;;;;11.00;10.35;;;;;;;;;;4980870;28;20598;-65
2023/05/10 14:06:48;;;;;;;10.63;9.93;;;;;;;;;;5002152;28;20037;-67
2023/05/10 14:09:14;;;;;;;12.15;11.45;;;;;;;;;;5000712;28;20030;-67
2023/05/10 14:11:42;;;;;;;11.35;10.65;;;;;;;;;;4989636;28;20257;-67
2023/05/10 14:14:08;;;;;;;11.30;10.60;;;;;;;;;;4996164;28;20066;-66
2023/05/10 14:16:34;;;;;;;11.80;11.10;;;;;;;;;;4999400;28;20061;-67
2023/05/10 14:18:59;;;;;;;14.70;13.90;;;;;;;;;;4991064;28;20117;-66
2023/05/10 14:21:25;;;;;;;16.23;15.32;;;;;;;;;;4997854;28;20037;-67